sensor_id;sensor_type;location;lat;lon;timestamp;P1;durP1;ratioP1;P2;durP2;ratioP2
71127;SDS011;59249;59.736;30.568;2023-11-21T00:00:14;20.58;;;8.68;;
71127;SDS011;59249;59.736;30.568;2023-11-21T00:02:45;22.40;;;9.10;;
71127;SDS011;59249;59.736;30.568;2023-11-21T00:05:14;20.83;;;9.18;;
71127;SDS011;59249;59.736;30.568;2023-11-21T00:07:44;26.40;;;9.68;;
71127;SDS011;59249;59.736;30.568;2023-11-21T00:10:13;29.17;;;10.17;;
71127;SDS011;59249;59.736;30.568;2023-11-21T00:12:44;29.70;;;9.65;;
71127;SDS011;59249;59.736;30.568;2023-11-21T00:15:15;29.00;;;9.40;;
71127;SDS011;59249;59.736;30.568;2023-11-21T00:17:45;26.83;;;8.70;;
71127;SDS011;59249;59.736;30.568;2023-11-21T00:20:14;21.45;;;9.60;;
71127;SDS011;59249;59.736;30.568;2023-11-21T00:22:44;26.60;;;8.73;;
71127;SDS011;59249;59.736;30.568;2023-11-21T00:25:14;25.38;;;9.40;;
71127;SDS011;59249;59.736;30.568;2023-11-21T00:27:44;21.25;;;8.07;;
71127;SDS011;59249;59.736;30.568;2023-11-21T00:30:13;23.40;;;9.18;;
71127;SDS011;59249;59.736;30.568;2023-11-21T00:32:43;26.25;;;9.52;;
71127;SDS011;59249;59.736;30.568;2023-11-21T00:35:12;23.67;;;8.43;;
71127;SDS011;59249;59.736;30.568;2023-11-21T00:37:40;24.90;;;9.07;;
71127;SDS011;59249;59.736;30.568;2023-11-21T00:40:11;24.33;;;8.98;;
71127;SDS011;59249;59.736;30.568;2023-11-21T00:42:43;28.00;;;10.10;;
71127;SDS011;59249;59.736;30.568;2023-11-21T00:45:13;25.23;;;10.52;;
71127;SDS011;59249;59.736;30.568;2023-11-21T00:47:42;20.10;;;8.07;;
71127;SDS011;59249;59.736;30.568;2023-11-21T00:50:11;22.33;;;8.98;;
71127;SDS011;59249;59.736;30.568;2023-11-21T00:52:40;26.90;;;9.75;;
71127;SDS011;59249;59.736;30.568;2023-11-21T00:55:10;24.65;;;9.10;;
71127;SDS011;59249;59.736;30.568;2023-11-21T00:57:39;28.92;;;10.68;;
71127;SDS011;59249;59.736;30.568;2023-11-21T01:00:09;26.30;;;8.83;;
71127;SDS011;59249;59.736;30.568;2023-11-21T01:02:41;33.33;;;10.23;;
71127;SDS011;59249;59.736;30.568;2023-11-21T01:05:11;17.02;;;6.85;;
71127;SDS011;59249;59.736;30.568;2023-11-21T01:07:39;25.83;;;9.23;;
71127;SDS011;59249;59.736;30.568;2023-11-21T01:10:09;23.45;;;9.57;;
71127;SDS011;59249;59.736;30.568;2023-11-21T01:12:39;36.87;;;12.50;;
71127;SDS011;59249;59.736;30.568;2023-11-21T01:15:08;26.38;;;8.82;;
71127;SDS011;59249;59.736;30.568;2023-11-21T01:17:39;17.52;;;5.32;;
71127;SDS011;59249;59.736;30.568;2023-11-21T01:20:08;19.08;;;8.18;;
71127;SDS011;59249;59.736;30.568;2023-11-21T01:22:41;32.15;;;11.75;;
71127;SDS011;59249;59.736;30.568;2023-11-21T01:25:11;39.23;;;12.00;;
71127;SDS011;59249;59.736;30.568;2023-11-21T01:27:42;27.00;;;9.75;;
71127;SDS011;59249;59.736;30.568;2023-11-21T01:30:11;28.33;;;10.68;;
71127;SDS011;59249;59.736;30.568;2023-11-21T01:32:41;35.58;;;10.93;;
71127;SDS011;59249;59.736;30.568;2023-11-21T01:35:10;6.93;;;2.63;;
71127;SDS011;59249;59.736;30.568;2023-11-21T01:37:40;14.60;;;4.63;;
71127;SDS011;59249;59.736;30.568;2023-11-21T01:40:09;18.98;;;5.80;;
71127;SDS011;59249;59.736;30.568;2023-11-21T01:42:42;33.47;;;10.60;;
71127;SDS011;59249;59.736;30.568;2023-11-21T01:45:11;24.08;;;8.18;;
71127;SDS011;59249;59.736;30.568;2023-11-21T01:47:41;23.80;;;8.63;;
71127;SDS011;59249;59.736;30.568;2023-11-21T01:50:13;23.00;;;9.57;;
71127;SDS011;59249;59.736;30.568;2023-11-21T01:52:45;23.42;;;8.32;;
71127;SDS011;59249;59.736;30.568;2023-11-21T01:55:18;27.23;;;9.68;;
71127;SDS011;59249;59.736;30.568;2023-11-21T01:57:55;27.10;;;9.98;;
71127;SDS011;59249;59.736;30.568;2023-11-21T02:00:24;22.50;;;6.07;;
71127;SDS011;59249;59.736;30.568;2023-11-21T02:02:56;28.70;;;9.47;;
71127;SDS011;59249;59.736;30.568;2023-11-21T02:05:26;30.50;;;10.35;;
71127;SDS011;59249;59.736;30.568;2023-11-21T02:07:58;30.55;;;10.80;;
71127;SDS011;59249;59.736;30.568;2023-11-21T02:10:30;33.28;;;10.05;;
71127;SDS011;59249;59.736;30.568;2023-11-21T02:12:59;29.92;;;9.52;;
71127;SDS011;59249;59.736;30.568;2023-11-21T02:15:31;23.57;;;7.13;;
71127;SDS011;59249;59.736;30.568;2023-11-21T02:18:00;29.45;;;9.95;;
71127;SDS011;59249;59.736;30.568;2023-11-21T02:20:30;26.58;;;8.98;;
71127;SDS011;59249;59.736;30.568;2023-11-21T02:23:05;28.58;;;9.52;;
71127;SDS011;59249;59.736;30.568;2023-11-21T02:25:34;28.52;;;11.57;;
71127;SDS011;59249;59.736;30.568;2023-11-21T02:28:04;31.23;;;9.87;;
71127;SDS011;59249;59.736;30.568;2023-11-21T02:30:35;29.33;;;10.35;;
71127;SDS011;59249;59.736;30.568;2023-11-21T02:33:04;32.58;;;9.80;;
71127;SDS011;59249;59.736;30.568;2023-11-21T02:35:34;31.77;;;10.57;;
71127;SDS011;59249;59.736;30.568;2023-11-21T02:38:03;36.28;;;12.70;;
71127;SDS011;59249;59.736;30.568;2023-11-21T02:40:33;38.53;;;11.23;;
71127;SDS011;59249;59.736;30.568;2023-11-21T02:43:02;37.38;;;11.23;;
71127;SDS011;59249;59.736;30.568;2023-11-21T02:45:33;27.63;;;11.00;;
71127;SDS011;59249;59.736;30.568;2023-11-21T02:48:02;27.77;;;11.15;;
71127;SDS011;59249;59.736;30.568;2023-11-21T02:50:31;36.22;;;12.77;;
71127;SDS011;59249;59.736;30.568;2023-11-21T02:53:02;34.93;;;12.30;;
71127;SDS011;59249;59.736;30.568;2023-11-21T02:55:34;36.85;;;11.70;;
71127;SDS011;59249;59.736;30.568;2023-11-21T02:58:03;26.52;;;9.13;;
71127;SDS011;59249;59.736;30.568;2023-11-21T03:00:33;29.77;;;10.93;;
71127;SDS011;59249;59.736;30.568;2023-11-21T03:03:02;32.35;;;10.25;;
71127;SDS011;59249;59.736;30.568;2023-11-21T03:05:31;33.90;;;10.80;;
71127;SDS011;59249;59.736;30.568;2023-11-21T03:08:02;34.08;;;11.02;;
71127;SDS011;59249;59.736;30.568;2023-11-21T03:10:33;38.63;;;12.60;;
71127;SDS011;59249;59.736;30.568;2023-11-21T03:13:02;40.17;;;12.95;;
71127;SDS011;59249;59.736;30.568;2023-11-21T03:15:31;15.77;;;5.80;;
71127;SDS011;59249;59.736;30.568;2023-11-21T03:18:02;38.67;;;12.37;;
71127;SDS011;59249;59.736;30.568;2023-11-21T03:20:32;39.03;;;12.70;;
71127;SDS011;59249;59.736;30.568;2023-11-21T03:23:01;31.52;;;11.75;;
71127;SDS011;59249;59.736;30.568;2023-11-21T03:25:31;32.08;;;11.02;;
71127;SDS011;59249;59.736;30.568;2023-11-21T03:28:02;29.92;;;10.68;;
71127;SDS011;59249;59.736;30.568;2023-11-21T03:30:30;37.67;;;10.67;;
71127;SDS011;59249;59.736;30.568;2023-11-21T03:32:59;33.13;;;11.88;;
71127;SDS011;59249;59.736;30.568;2023-11-21T03:35:29;30.80;;;11.95;;
71127;SDS011;59249;59.736;30.568;2023-11-21T03:37:57;31.55;;;11.10;;
71127;SDS011;59249;59.736;30.568;2023-11-21T03:40:28;24.60;;;8.13;;
71127;SDS011;59249;59.736;30.568;2023-11-21T03:42:59;29.87;;;10.70;;
71127;SDS011;59249;59.736;30.568;2023-11-21T03:45:28;36.75;;;10.80;;
71127;SDS011;59249;59.736;30.568;2023-11-21T03:47:57;33.33;;;10.30;;
71127;SDS011;59249;59.736;30.568;2023-11-21T03:50:28;32.78;;;10.57;;
71127;SDS011;59249;59.736;30.568;2023-11-21T03:52:58;28.52;;;10.68;;
71127;SDS011;59249;59.736;30.568;2023-11-21T03:55:28;35.27;;;10.27;;
71127;SDS011;59249;59.736;30.568;2023-11-21T03:57:59;33.08;;;10.80;;
71127;SDS011;59249;59.736;30.568;2023-11-21T04:00:28;34.08;;;11.60;;
71127;SDS011;59249;59.736;30.568;2023-11-21T04:02:57;27.65;;;8.10;;
71127;SDS011;59249;59.736;30.568;2023-11-21T04:05:26;30.60;;;9.77;;
71127;SDS011;59249;59.736;30.568;2023-11-21T04:07:55;35.73;;;9.47;;
71127;SDS011;59249;59.736;30.568;2023-11-21T04:10:24;29.65;;;10.27;;
71127;SDS011;59249;59.736;30.568;2023-11-21T04:12:53;27.45;;;10.77;;
71127;SDS011;59249;59.736;30.568;2023-11-21T04:15:23;34.17;;;10.93;;
71127;SDS011;59249;59.736;30.568;2023-11-21T04:17:53;27.55;;;10.73;;
71127;SDS011;59249;59.736;30.568;2023-11-21T04:20:23;34.23;;;10.77;;
71127;SDS011;59249;59.736;30.568;2023-11-21T04:22:52;31.35;;;8.93;;
71127;SDS011;59249;59.736;30.568;2023-11-21T04:25:21;29.25;;;8.95;;
71127;SDS011;59249;59.736;30.568;2023-11-21T04:27:51;23.10;;;8.70;;
71127;SDS011;59249;59.736;30.568;2023-11-21T04:30:21;17.75;;;6.13;;
71127;SDS011;59249;59.736;30.568;2023-11-21T04:32:51;27.43;;;10.70;;
71127;SDS011;59249;59.736;30.568;2023-11-21T04:35:20;20.58;;;7.00;;
71127;SDS011;59249;59.736;30.568;2023-11-21T04:37:48;22.33;;;7.05;;
71127;SDS011;59249;59.736;30.568;2023-11-21T04:40:18;19.38;;;6.75;;
71127;SDS011;59249;59.736;30.568;2023-11-21T04:42:47;16.35;;;6.05;;
71127;SDS011;59249;59.736;30.568;2023-11-21T04:45:16;20.10;;;6.57;;
71127;SDS011;59249;59.736;30.568;2023-11-21T04:47:45;15.48;;;5.05;;
71127;SDS011;59249;59.736;30.568;2023-11-21T04:50:15;16.55;;;4.82;;
71127;SDS011;59249;59.736;30.568;2023-11-21T04:52:45;17.08;;;5.18;;
71127;SDS011;59249;59.736;30.568;2023-11-21T04:55:14;16.05;;;6.03;;
71127;SDS011;59249;59.736;30.568;2023-11-21T04:57:44;15.80;;;5.00;;
71127;SDS011;59249;59.736;30.568;2023-11-21T05:00:17;15.10;;;4.43;;
71127;SDS011;59249;59.736;30.568;2023-11-21T05:02:47;16.98;;;5.50;;
71127;SDS011;59249;59.736;30.568;2023-11-21T05:05:18;17.42;;;5.43;;
71127;SDS011;59249;59.736;30.568;2023-11-21T05:07:47;10.48;;;4.15;;
71127;SDS011;59249;59.736;30.568;2023-11-21T05:10:16;14.80;;;4.50;;
71127;SDS011;59249;59.736;30.568;2023-11-21T05:12:45;15.75;;;5.15;;
71127;SDS011;59249;59.736;30.568;2023-11-21T05:15:14;16.15;;;5.47;;
71127;SDS011;59249;59.736;30.568;2023-11-21T05:17:44;16.20;;;4.72;;
71127;SDS011;59249;59.736;30.568;2023-11-21T05:20:18;15.30;;;4.75;;
71127;SDS011;59249;59.736;30.568;2023-11-21T05:22:48;13.30;;;3.90;;
71127;SDS011;59249;59.736;30.568;2023-11-21T05:25:17;12.77;;;4.63;;
71127;SDS011;59249;59.736;30.568;2023-11-21T05:27:47;15.57;;;5.20;;
71127;SDS011;59249;59.736;30.568;2023-11-21T05:30:16;14.77;;;5.32;;
71127;SDS011;59249;59.736;30.568;2023-11-21T05:32:45;14.70;;;3.65;;
71127;SDS011;59249;59.736;30.568;2023-11-21T05:35:18;14.73;;;5.00;;
71127;SDS011;59249;59.736;30.568;2023-11-21T05:37:48;12.10;;;4.40;;
71127;SDS011;59249;59.736;30.568;2023-11-21T05:40:16;10.57;;;4.53;;
71127;SDS011;59249;59.736;30.568;2023-11-21T05:42:45;18.42;;;5.93;;
71127;SDS011;59249;59.736;30.568;2023-11-21T05:45:14;22.85;;;5.85;;
71127;SDS011;59249;59.736;30.568;2023-11-21T05:47:46;16.10;;;5.80;;
71127;SDS011;59249;59.736;30.568;2023-11-21T05:50:15;22.08;;;6.35;;
71127;SDS011;59249;59.736;30.568;2023-11-21T05:52:47;10.02;;;4.10;;
71127;SDS011;59249;59.736;30.568;2023-11-21T05:55:16;8.55;;;3.30;;
71127;SDS011;59249;59.736;30.568;2023-11-21T05:57:48;17.33;;;7.13;;
71127;SDS011;59249;59.736;30.568;2023-11-21T06:00:17;12.30;;;4.80;;
71127;SDS011;59249;59.736;30.568;2023-11-21T06:02:49;14.05;;;4.78;;
71127;SDS011;59249;59.736;30.568;2023-11-21T06:05:22;22.05;;;6.80;;
71127;SDS011;59249;59.736;30.568;2023-11-21T06:07:53;12.25;;;4.68;;
71127;SDS011;59249;59.736;30.568;2023-11-21T06:10:26;22.15;;;7.07;;
71127;SDS011;59249;59.736;30.568;2023-11-21T06:12:57;15.30;;;5.77;;
71127;SDS011;59249;59.736;30.568;2023-11-21T06:15:30;11.70;;;2.95;;
71127;SDS011;59249;59.736;30.568;2023-11-21T06:17:58;12.32;;;4.65;;
71127;SDS011;59249;59.736;30.568;2023-11-21T06:20:29;15.95;;;4.93;;
71127;SDS011;59249;59.736;30.568;2023-11-21T06:22:57;13.02;;;3.78;;
71127;SDS011;59249;59.736;30.568;2023-11-21T06:25:30;8.47;;;3.23;;
71127;SDS011;59249;59.736;30.568;2023-11-21T06:28:03;15.70;;;4.43;;
71127;SDS011;59249;59.736;30.568;2023-11-21T06:30:33;10.82;;;4.28;;
71127;SDS011;59249;59.736;30.568;2023-11-21T06:33:02;12.85;;;3.65;;
71127;SDS011;59249;59.736;30.568;2023-11-21T06:35:32;8.40;;;3.20;;
71127;SDS011;59249;59.736;30.568;2023-11-21T06:38:01;12.50;;;4.63;;
71127;SDS011;59249;59.736;30.568;2023-11-21T06:40:30;14.82;;;5.13;;
71127;SDS011;59249;59.736;30.568;2023-11-21T06:43:00;13.27;;;4.05;;
71127;SDS011;59249;59.736;30.568;2023-11-21T06:45:29;12.45;;;5.50;;
71127;SDS011;59249;59.736;30.568;2023-11-21T06:47:58;15.38;;;4.93;;
71127;SDS011;59249;59.736;30.568;2023-11-21T06:50:27;14.23;;;4.40;;
71127;SDS011;59249;59.736;30.568;2023-11-21T06:52:57;18.17;;;5.75;;
71127;SDS011;59249;59.736;30.568;2023-11-21T06:55:26;15.10;;;6.28;;
71127;SDS011;59249;59.736;30.568;2023-11-21T06:57:55;13.65;;;6.00;;
71127;SDS011;59249;59.736;30.568;2023-11-21T07:00:24;17.80;;;6.97;;
71127;SDS011;59249;59.736;30.568;2023-11-21T07:02:55;13.17;;;5.27;;
71127;SDS011;59249;59.736;30.568;2023-11-21T07:05:24;12.82;;;5.53;;
71127;SDS011;59249;59.736;30.568;2023-11-21T07:07:52;17.55;;;6.30;;
71127;SDS011;59249;59.736;30.568;2023-11-21T07:10:23;12.60;;;5.10;;
71127;SDS011;59249;59.736;30.568;2023-11-21T07:12:52;14.98;;;5.05;;
71127;SDS011;59249;59.736;30.568;2023-11-21T07:15:21;20.77;;;6.20;;
71127;SDS011;59249;59.736;30.568;2023-11-21T07:17:49;15.38;;;4.10;;
71127;SDS011;59249;59.736;30.568;2023-11-21T07:20:20;12.68;;;4.43;;
71127;SDS011;59249;59.736;30.568;2023-11-21T07:22:50;13.70;;;4.95;;
71127;SDS011;59249;59.736;30.568;2023-11-21T07:25:19;12.23;;;5.00;;
71127;SDS011;59249;59.736;30.568;2023-11-21T07:27:50;13.50;;;4.90;;
71127;SDS011;59249;59.736;30.568;2023-11-21T07:30:19;11.82;;;4.57;;
71127;SDS011;59249;59.736;30.568;2023-11-21T07:32:49;14.30;;;4.80;;
71127;SDS011;59249;59.736;30.568;2023-11-21T07:35:18;12.68;;;4.78;;
71127;SDS011;59249;59.736;30.568;2023-11-21T07:37:46;13.80;;;6.10;;
71127;SDS011;59249;59.736;30.568;2023-11-21T07:40:16;10.80;;;4.20;;
71127;SDS011;59249;59.736;30.568;2023-11-21T07:42:44;17.98;;;5.28;;
71127;SDS011;59249;59.736;30.568;2023-11-21T07:45:15;13.90;;;6.13;;
71127;SDS011;59249;59.736;30.568;2023-11-21T07:47:44;15.90;;;6.10;;
71127;SDS011;59249;59.736;30.568;2023-11-21T07:50:13;7.32;;;2.88;;
71127;SDS011;59249;59.736;30.568;2023-11-21T07:52:42;13.00;;;4.03;;
71127;SDS011;59249;59.736;30.568;2023-11-21T07:55:11;12.90;;;3.47;;
71127;SDS011;59249;59.736;30.568;2023-11-21T07:57:40;10.70;;;3.40;;
71127;SDS011;59249;59.736;30.568;2023-11-21T08:00:10;11.75;;;3.33;;
71127;SDS011;59249;59.736;30.568;2023-11-21T08:02:43;9.95;;;4.63;;
71127;SDS011;59249;59.736;30.568;2023-11-21T08:05:12;15.70;;;4.50;;
71127;SDS011;59249;59.736;30.568;2023-11-21T08:07:54;10.98;;;3.60;;
71127;SDS011;59249;59.736;30.568;2023-11-21T08:10:22;15.15;;;5.53;;
71127;SDS011;59249;59.736;30.568;2023-11-21T08:12:51;8.57;;;2.90;;
71127;SDS011;59249;59.736;30.568;2023-11-21T08:15:20;9.10;;;2.83;;
71127;SDS011;59249;59.736;30.568;2023-11-21T08:17:51;11.77;;;3.27;;
71127;SDS011;59249;59.736;30.568;2023-11-21T08:20:19;12.25;;;4.18;;
71127;SDS011;59249;59.736;30.568;2023-11-21T08:22:49;12.40;;;4.50;;
71127;SDS011;59249;59.736;30.568;2023-11-21T08:25:19;13.07;;;4.18;;
71127;SDS011;59249;59.736;30.568;2023-11-21T08:27:49;10.20;;;4.45;;
71127;SDS011;59249;59.736;30.568;2023-11-21T08:30:33;12.90;;;4.30;;
71127;SDS011;59249;59.736;30.568;2023-11-21T08:33:03;12.75;;;4.03;;
71127;SDS011;59249;59.736;30.568;2023-11-21T08:35:32;12.82;;;3.75;;
71127;SDS011;59249;59.736;30.568;2023-11-21T08:38:01;12.77;;;4.13;;
71127;SDS011;59249;59.736;30.568;2023-11-21T08:40:30;9.40;;;3.28;;
71127;SDS011;59249;59.736;30.568;2023-11-21T08:43:01;9.40;;;3.40;;
71127;SDS011;59249;59.736;30.568;2023-11-21T08:45:31;11.15;;;4.15;;
71127;SDS011;59249;59.736;30.568;2023-11-21T08:48:26;13.50;;;4.10;;
71127;SDS011;59249;59.736;30.568;2023-11-21T08:51:09;11.68;;;4.53;;
71127;SDS011;59249;59.736;30.568;2023-11-21T08:53:39;14.45;;;4.40;;
71127;SDS011;59249;59.736;30.568;2023-11-21T08:56:11;13.47;;;3.90;;
71127;SDS011;59249;59.736;30.568;2023-11-21T08:58:41;13.65;;;4.28;;
71127;SDS011;59249;59.736;30.568;2023-11-21T09:01:11;12.68;;;5.10;;
71127;SDS011;59249;59.736;30.568;2023-11-21T09:03:41;12.45;;;4.30;;
71127;SDS011;59249;59.736;30.568;2023-11-21T09:06:11;11.75;;;4.03;;
71127;SDS011;59249;59.736;30.568;2023-11-21T09:08:41;11.03;;;4.10;;
71127;SDS011;59249;59.736;30.568;2023-11-21T09:11:10;10.07;;;3.88;;
71127;SDS011;59249;59.736;30.568;2023-11-21T09:13:39;9.07;;;3.38;;
71127;SDS011;59249;59.736;30.568;2023-11-21T09:16:08;8.40;;;3.75;;
71127;SDS011;59249;59.736;30.568;2023-11-21T09:18:37;13.32;;;4.22;;
71127;SDS011;59249;59.736;30.568;2023-11-21T09:21:08;12.63;;;4.57;;
71127;SDS011;59249;59.736;30.568;2023-11-21T09:23:36;12.93;;;3.90;;
71127;SDS011;59249;59.736;30.568;2023-11-21T09:26:05;11.77;;;4.20;;
71127;SDS011;59249;59.736;30.568;2023-11-21T09:28:34;11.65;;;4.15;;
71127;SDS011;59249;59.736;30.568;2023-11-21T09:31:04;9.52;;;3.95;;
71127;SDS011;59249;59.736;30.568;2023-11-21T09:33:35;10.27;;;3.80;;
71127;SDS011;59249;59.736;30.568;2023-11-21T09:36:05;15.32;;;5.03;;
71127;SDS011;59249;59.736;30.568;2023-11-21T09:38:41;14.13;;;5.80;;
71127;SDS011;59249;59.736;30.568;2023-11-21T09:41:13;13.93;;;4.22;;
71127;SDS011;59249;59.736;30.568;2023-11-21T09:43:51;16.30;;;5.15;;
71127;SDS011;59249;59.736;30.568;2023-11-21T09:46:27;15.80;;;5.10;;
71127;SDS011;59249;59.736;30.568;2023-11-21T09:48:57;17.42;;;4.70;;
71127;SDS011;59249;59.736;30.568;2023-11-21T09:51:34;14.38;;;5.20;;
71127;SDS011;59249;59.736;30.568;2023-11-21T09:54:05;16.00;;;5.18;;
71127;SDS011;59249;59.736;30.568;2023-11-21T09:56:37;15.10;;;5.30;;
71127;SDS011;59249;59.736;30.568;2023-11-21T09:59:06;21.97;;;6.27;;
71127;SDS011;59249;59.736;30.568;2023-11-21T10:01:36;15.90;;;5.07;;
71127;SDS011;59249;59.736;30.568;2023-11-21T10:04:09;15.95;;;5.40;;
71127;SDS011;59249;59.736;30.568;2023-11-21T10:06:41;24.73;;;6.22;;
71127;SDS011;59249;59.736;30.568;2023-11-21T10:09:10;16.40;;;5.50;;
71127;SDS011;59249;59.736;30.568;2023-11-21T10:11:40;15.93;;;5.50;;
71127;SDS011;59249;59.736;30.568;2023-11-21T10:14:10;14.32;;;5.88;;
71127;SDS011;59249;59.736;30.568;2023-11-21T10:16:41;18.42;;;6.10;;
71127;SDS011;59249;59.736;30.568;2023-11-21T10:19:14;15.07;;;5.95;;
71127;SDS011;59249;59.736;30.568;2023-11-21T10:21:45;16.08;;;5.38;;
71127;SDS011;59249;59.736;30.568;2023-11-21T10:24:14;18.43;;;6.47;;
71127;SDS011;59249;59.736;30.568;2023-11-21T10:26:43;12.48;;;5.43;;
71127;SDS011;59249;59.736;30.568;2023-11-21T10:29:20;15.60;;;5.55;;
71127;SDS011;59249;59.736;30.568;2023-11-21T10:31:49;9.23;;;4.30;;
71127;SDS011;59249;59.736;30.568;2023-11-21T10:34:21;12.15;;;5.43;;
71127;SDS011;59249;59.736;30.568;2023-11-21T10:36:52;20.20;;;6.23;;
71127;SDS011;59249;59.736;30.568;2023-11-21T10:39:25;10.68;;;4.68;;
71127;SDS011;59249;59.736;30.568;2023-11-21T10:41:57;14.20;;;5.25;;
71127;SDS011;59249;59.736;30.568;2023-11-21T10:44:27;19.02;;;6.88;;
71127;SDS011;59249;59.736;30.568;2023-11-21T10:46:56;18.17;;;7.57;;
71127;SDS011;59249;59.736;30.568;2023-11-21T10:49:27;19.30;;;7.13;;
71127;SDS011;59249;59.736;30.568;2023-11-21T10:51:59;17.30;;;8.20;;
71127;SDS011;59249;59.736;30.568;2023-11-21T10:54:28;21.67;;;7.55;;
71127;SDS011;59249;59.736;30.568;2023-11-21T10:56:57;18.60;;;6.85;;
71127;SDS011;59249;59.736;30.568;2023-11-21T10:59:29;12.25;;;5.82;;
71127;SDS011;59249;59.736;30.568;2023-11-21T11:02:00;10.70;;;4.00;;
71127;SDS011;59249;59.736;30.568;2023-11-21T11:04:35;12.15;;;5.05;;
71127;SDS011;59249;59.736;30.568;2023-11-21T11:07:07;13.43;;;4.43;;
71127;SDS011;59249;59.736;30.568;2023-11-21T11:09:41;18.13;;;6.28;;
71127;SDS011;59249;59.736;30.568;2023-11-21T11:12:11;13.63;;;4.18;;
71127;SDS011;59249;59.736;30.568;2023-11-21T11:14:44;6.60;;;2.77;;
71127;SDS011;59249;59.736;30.568;2023-11-21T11:17:14;10.95;;;4.50;;
71127;SDS011;59249;59.736;30.568;2023-11-21T11:19:46;6.63;;;2.63;;
71127;SDS011;59249;59.736;30.568;2023-11-21T11:22:23;8.63;;;3.13;;
71127;SDS011;59249;59.736;30.568;2023-11-21T11:25:13;9.10;;;3.75;;
71127;SDS011;59249;59.736;30.568;2023-11-21T11:28:17;11.17;;;3.80;;
71127;SDS011;59249;59.736;30.568;2023-11-21T11:30:55;12.55;;;4.28;;
71127;SDS011;59249;59.736;30.568;2023-11-21T11:33:36;7.28;;;2.92;;
71127;SDS011;59249;59.736;30.568;2023-11-21T11:36:14;4.50;;;1.42;;
71127;SDS011;59249;59.736;30.568;2023-11-21T11:38:55;8.00;;;2.90;;
71127;SDS011;59249;59.736;30.568;2023-11-21T11:41:24;10.53;;;4.37;;
71127;SDS011;59249;59.736;30.568;2023-11-21T11:43:54;7.28;;;2.40;;
71127;SDS011;59249;59.736;30.568;2023-11-21T11:49:23;7.97;;;2.88;;
71127;SDS011;59249;59.736;30.568;2023-11-21T11:55:03;11.93;;;4.43;;
71127;SDS011;59249;59.736;30.568;2023-11-21T11:57:37;10.40;;;4.47;;
71127;SDS011;59249;59.736;30.568;2023-11-21T12:00:07;7.25;;;3.33;;
71127;SDS011;59249;59.736;30.568;2023-11-21T12:02:44;10.98;;;4.45;;
71127;SDS011;59249;59.736;30.568;2023-11-21T12:05:16;11.25;;;4.60;;
71127;SDS011;59249;59.736;30.568;2023-11-21T12:07:47;13.23;;;5.47;;
71127;SDS011;59249;59.736;30.568;2023-11-21T12:10:23;10.80;;;5.05;;
71127;SDS011;59249;59.736;30.568;2023-11-21T12:12:54;15.82;;;6.95;;
71127;SDS011;59249;59.736;30.568;2023-11-21T12:15:24;11.02;;;5.97;;
71127;SDS011;59249;59.736;30.568;2023-11-21T12:17:56;10.18;;;4.32;;
71127;SDS011;59249;59.736;30.568;2023-11-21T12:20:26;11.17;;;3.97;;
71127;SDS011;59249;59.736;30.568;2023-11-21T12:22:57;14.77;;;6.25;;
71127;SDS011;59249;59.736;30.568;2023-11-21T12:25:29;11.07;;;5.57;;
71127;SDS011;59249;59.736;30.568;2023-11-21T12:28:01;8.63;;;3.90;;
71127;SDS011;59249;59.736;30.568;2023-11-21T12:30:31;6.50;;;2.72;;
71127;SDS011;59249;59.736;30.568;2023-11-21T12:33:05;13.93;;;7.23;;
71127;SDS011;59249;59.736;30.568;2023-11-21T12:35:37;16.05;;;6.18;;
71127;SDS011;59249;59.736;30.568;2023-11-21T12:38:06;13.63;;;6.68;;
71127;SDS011;59249;59.736;30.568;2023-11-21T12:40:38;17.70;;;6.72;;
71127;SDS011;59249;59.736;30.568;2023-11-21T12:43:07;18.35;;;7.13;;
71127;SDS011;59249;59.736;30.568;2023-11-21T12:45:36;7.73;;;3.87;;
71127;SDS011;59249;59.736;30.568;2023-11-21T12:48:05;9.30;;;5.13;;
71127;SDS011;59249;59.736;30.568;2023-11-21T12:50:36;13.88;;;4.78;;
71127;SDS011;59249;59.736;30.568;2023-11-21T12:53:07;12.25;;;5.00;;
71127;SDS011;59249;59.736;30.568;2023-11-21T12:55:43;14.10;;;5.05;;
71127;SDS011;59249;59.736;30.568;2023-11-21T12:58:17;8.20;;;3.27;;
71127;SDS011;59249;59.736;30.568;2023-11-21T13:00:50;14.40;;;6.38;;
71127;SDS011;59249;59.736;30.568;2023-11-21T13:03:21;12.20;;;5.55;;
71127;SDS011;59249;59.736;30.568;2023-11-21T13:05:53;14.02;;;7.13;;
71127;SDS011;59249;59.736;30.568;2023-11-21T13:08:24;17.30;;;8.00;;
71127;SDS011;59249;59.736;30.568;2023-11-21T13:10:58;17.60;;;7.50;;
71127;SDS011;59249;59.736;30.568;2023-11-21T13:13:29;21.95;;;9.18;;
71127;SDS011;59249;59.736;30.568;2023-11-21T13:15:59;19.83;;;8.32;;
71127;SDS011;59249;59.736;30.568;2023-11-21T13:18:32;14.70;;;5.78;;
71127;SDS011;59249;59.736;30.568;2023-11-21T13:21:01;16.42;;;7.32;;
71127;SDS011;59249;59.736;30.568;2023-11-21T13:23:37;16.23;;;5.90;;
71127;SDS011;59249;59.736;30.568;2023-11-21T13:26:09;17.52;;;7.40;;
71127;SDS011;59249;59.736;30.568;2023-11-21T13:28:39;14.02;;;7.25;;
71127;SDS011;59249;59.736;30.568;2023-11-21T13:31:13;16.33;;;6.47;;
71127;SDS011;59249;59.736;30.568;2023-11-21T13:33:55;10.90;;;4.25;;
71127;SDS011;59249;59.736;30.568;2023-11-21T13:36:31;13.73;;;6.07;;
71127;SDS011;59249;59.736;30.568;2023-11-21T13:39:02;17.98;;;7.50;;
71127;SDS011;59249;59.736;30.568;2023-11-21T13:41:36;11.80;;;5.85;;
71127;SDS011;59249;59.736;30.568;2023-11-21T13:44:06;18.08;;;6.05;;
71127;SDS011;59249;59.736;30.568;2023-11-21T13:46:43;14.65;;;4.45;;
71127;SDS011;59249;59.736;30.568;2023-11-21T13:49:13;18.60;;;6.93;;
71127;SDS011;59249;59.736;30.568;2023-11-21T13:51:42;13.80;;;6.13;;
71127;SDS011;59249;59.736;30.568;2023-11-21T13:54:15;11.65;;;5.43;;
71127;SDS011;59249;59.736;30.568;2023-11-21T13:56:47;14.52;;;6.95;;
71127;SDS011;59249;59.736;30.568;2023-11-21T13:59:17;13.23;;;5.50;;
71127;SDS011;59249;59.736;30.568;2023-11-21T14:01:50;15.90;;;6.33;;
71127;SDS011;59249;59.736;30.568;2023-11-21T14:04:25;17.90;;;6.53;;
71127;SDS011;59249;59.736;30.568;2023-11-21T14:07:14;13.95;;;4.60;;
71127;SDS011;59249;59.736;30.568;2023-11-21T14:09:53;7.60;;;3.10;;
71127;SDS011;59249;59.736;30.568;2023-11-21T14:12:24;8.80;;;3.83;;
71127;SDS011;59249;59.736;30.568;2023-11-21T14:14:53;8.40;;;3.90;;
71127;SDS011;59249;59.736;30.568;2023-11-21T14:17:22;13.27;;;5.25;;
71127;SDS011;59249;59.736;30.568;2023-11-21T14:19:51;12.93;;;4.25;;
71127;SDS011;59249;59.736;30.568;2023-11-21T14:22:22;15.27;;;5.60;;
71127;SDS011;59249;59.736;30.568;2023-11-21T14:24:52;12.77;;;5.47;;
71127;SDS011;59249;59.736;30.568;2023-11-21T14:27:27;8.80;;;4.10;;
71127;SDS011;59249;59.736;30.568;2023-11-21T14:29:56;10.93;;;4.82;;
71127;SDS011;59249;59.736;30.568;2023-11-21T14:32:33;9.10;;;3.13;;
71127;SDS011;59249;59.736;30.568;2023-11-21T14:35:05;10.13;;;4.10;;
71127;SDS011;59249;59.736;30.568;2023-11-21T14:37:35;14.13;;;4.55;;
71127;SDS011;59249;59.736;30.568;2023-11-21T14:40:05;10.33;;;3.93;;
71127;SDS011;59249;59.736;30.568;2023-11-21T14:42:45;6.40;;;2.47;;
71127;SDS011;59249;59.736;30.568;2023-11-21T14:45:14;12.05;;;4.03;;
71127;SDS011;59249;59.736;30.568;2023-11-21T14:47:47;13.10;;;3.72;;